Scroll down
FLIGHT INFORMATION
Nippon Cargo Airlines

NCA9816

Diverted

KATL
 KGSP
[Original Destination: KGSP ]
DATE: 2022-08-16
GATE: 
GATE DEPARTURE: 01:47
TAKEOFF: 01:47
DATE: 2022-08-16
GATE:  -
LANDING: 02:16
GATE ARRIVAL: 02:19
FLIGHT DATA
Crew: 
Speed: 
902 kph
Altitude: 
35,007 ft
Stage Length: 
492.5 km
Block Time: 
0.5 hrs
Flight Time: 
0.5 hrs
Fuel Used: 
5,555 kg
Cleared Route: KATL SPA KGSO
TRACK DATA
50,000 ft 1,000 kts
AIRCRAFT INFO AND CUMULATIVE STATS
Aircraft Type: 
B744F
Registration: 
SELCAL: 
CKFM
MSN/LN: 
36135 / 1408
Operator: 
Total Flights: 
1
Total Block Time: 
0.5 hrs
Total Flight Time: 
0.5 hrs
Total Fuel Used: 
5,555 kg
DATALINK LOG | Newest first | Current as of: 2022-10-05 21:45:02
LABEL SEQUENCE CONTENT Dn/Up
QD230202:19 53.6▼ Dn
QC185902:16▼ Dn
2U0547KGSP 160153Z 02004KT 10SM FEW046 22/21 A2990 RMK AO2 SLP115 T02170206▲ Up
2S0547KGSP▼ Dn
QB503301:47▼ Dn
QA503301:47 65.8▼ Dn
UM2124337KGSO ATIS - GSO ATIS INFO F 0054Z. 07011KT 10SM FEW020 SCT027 OVC030 22/19 A2991 (TWO NINER NINER ONE). ILS RWY 5L APCH, GPS RY 5R APCH IN USE. NOTAMS... RWY 14, 32 CLSD. TWY D CLSD BTN TWY H AND TWY D1 ; TWY D2 CLSD. ILS RWY 5R OTS, ILS RWY 23L OTS, RY 5R ALS OTS, RY 5R, 23L TDZL OTS, RY 5R, 23L CL LGTS OTS. WARNING. RUNWAY TWO THREE LEFT AND FIVE RIGHT HAS BEEN SHORTENED. EIGHT THOUSAND ONE HUNDRED FEET AVAILABLE. PAPI RWY 5R OTS. USE CAUTION FALSE OR DECEPTIVE COMMUNICATION REPORTED ON 124.35 NORTH NORTHEAST OF GSO. READBACK ALL RWY HOLD SHORT INSTRUCTIONS. CONTACT GND ON 121.9 FOR CLNC AND TAXI INSTRUCTIONS. ...ADVS YOU HAVE INFO F.▲ Up
DM794327 ATIS KGSO A▼ Dn
UM2124239KATL ATIS - ATL DEP INFO V 0117Z SPECIAL. 15003KT 10SM FEW080 SCT110 BKN150 BKN200 23/21 A2990 (TWO NINER NINER ZERO) RMK AO2 RAE08 TSE17 LTG DSNT N NE-SE TS MOVD SE CB DSNT N NE-SE P0000. SIMUL DEPS, DEPG RWYS, 26L, 27R. XPECT RNAV OFF THE GROUND DEPTG RWY 26L, XPECT RNAV OFF THE GROUND DEPTG RWY 27R. GROUND CONTROL WILL ASSIGN RUNWAY WITH TAXI INSTRUCTIONS. NOTAMS... TWY R CLSD BTN TWY R6 AND TWY R12. ATL NAV ILS RWY 27L UNUSABLE FROM DECISION ALTITUDE TO TOUCHDOWN ZONE. HAZD WX INFO FOR ATLANTA AREA AVBL FM FSS. WIND SHEAR ADZYS IN EFCT. BIRD ACTIVITY VC OF ARPT. FDC NOTAM 2/8116 IS NOT IN EFFECT. OPERATE TRANSPONDER WITH MODE C ON ALL RAMPS, TWYS AND RWYS.. ...ADVS YOU HAVE INFO V.▲ Up
DM794229 ATIS KATL D▼ Dn
2U4228KGSO 160054Z 07011KT 10SM FEW020 SCT027 OVC030 22/19 A2991 RMK AO2 SLP119 T02220194▲ Up
2U4227KATL 160117Z 15003KT 10SM FEW080 SCT110 BKN150 BKN200 23/21 A2990 RMK AO2 RAE08 TSE17 LTG DSNT N NE-SE TS MOVD SE CB DSNT N NE-SE P0000 T02330211▲ Up
2S4227KATL KGSO▼ Dn
A34226CLEARED TO KGSO VIA PLMMR2 SPA TRAKS3. SQUAWK 4550.▲ Up
Q04125[LINK ACK]▲ Up
Q04125[LINK TEST]▼ Dn


AIRCRAFT HISTORY
FLIGHT DATE FLIGHT NO. ORIGIN DESTINATION CLEARED ROUTE BLOCK TIME FLIGHT TIME FUEL USED PILOT
2022-08-16NCA9816KATL KGSP KATL SPA KGSO0.5 hrs0.5 hrs12,246 lbAllan Burek